Time;durP1;ratioP1;P1;durP2;ratioP2;P2;SDS_P1;SDS_P2;PMS_P1;PMS_P2;Temp;Humidity;BMP_temperature;BMP_pressure;BME280_temperature;BME280_humidity;BME280_pressure;Samples;Min_cycle;Max_cycle;Signal;HPM_P1;HPM_P2
2021/09/10 00:00:28;;;;;;;6.07;5.17;;;;;;;24.28;59.00;99579.13;2064080;28;20036;-46
2021/09/10 00:01:29;;;;;;;6.17;5.57;;;;;;;24.28;59.05;99577.22;2058998;28;20420;-47
2021/09/10 00:02:29;;;;;;;6.83;6.20;;;;;;;24.27;59.31;99578.25;2060862;28;20030;-46
2021/09/10 00:03:30;;;;;;;6.13;5.53;;;;;;;24.27;59.33;99575.47;2055853;28;20290;-46
2021/09/10 00:04:30;;;;;;;7.50;6.20;;;;;;;24.28;59.19;99571.69;2063003;28;20032;-46
2021/09/10 00:05:31;;;;;;;4.80;4.37;;;;;;;24.28;59.21;99577.22;2052418;28;20027;-46
2021/09/10 00:06:31;;;;;;;6.00;5.43;;;;;;;24.28;59.19;99568.94;2059432;28;20034;-46
2021/09/10 00:07:32;;;;;;;5.87;5.27;;;;;;;24.27;58.94;99581.00;2052988;28;20030;-46
2021/09/10 00:08:32;;;;;;;6.17;5.57;;;;;;;24.27;58.94;99575.47;2056310;28;20109;-46
2021/09/10 00:09:33;;;;;;;5.60;5.10;;;;;;;24.28;59.27;99571.69;2059344;28;20025;-46
2021/09/10 00:10:33;;;;;;;5.63;5.13;;;;;;;24.28;59.03;99574.44;2061119;28;20080;-47
2021/09/10 00:11:34;;;;;;;5.37;4.87;;;;;;;24.28;59.11;99571.69;2058527;28;20152;-46
2021/09/10 00:12:35;;;;;;;6.27;5.60;;;;;;;24.28;59.12;99574.44;2055990;28;20092;-46
2021/09/10 00:13:35;;;;;;;6.13;5.10;;;;;;;24.28;59.23;99568.09;2057806;28;20088;-47
2021/09/10 00:14:36;;;;;;;5.63;5.07;;;;;;;24.28;59.12;99566.19;2054657;28;20022;-46
2021/09/10 00:15:37;;;;;;;6.80;6.10;;;;;;;24.28;59.21;99560.69;2062375;28;20022;-46
2021/09/10 00:16:38;;;;;;;6.47;5.77;;;;;;;24.28;59.20;99570.84;2059879;28;20105;-47
2021/09/10 00:17:38;;;;;;;6.20;5.60;;;;;;;24.28;59.19;99568.09;2058682;28;20017;-47
2021/09/10 00:18:39;;;;;;;6.17;5.57;;;;;;;24.27;59.16;99564.47;2057889;28;20044;-47
2021/09/10 00:19:39;;;;;;;7.53;5.73;;;;;;;24.26;59.29;99562.78;2052140;28;20032;-46
2021/09/10 00:20:40;;;;;;;6.17;5.57;;;;;;;24.27;59.12;99558.97;2057396;28;20436;-46
2021/09/10 00:21:40;;;;;;;5.67;5.17;;;;;;;24.27;59.21;99567.22;2057052;28;20029;-46
2021/09/10 00:22:41;;;;;;;5.20;4.80;;;;;;;24.27;59.03;99563.63;2058865;28;20040;-46
2021/09/10 00:23:41;;;;;;;5.43;4.87;;;;;;;24.27;59.09;99564.47;2058772;28;20211;-46
2021/09/10 00:24:42;;;;;;;6.40;5.80;;;;;;;24.27;59.15;99569.97;2055939;28;20022;-47
2021/09/10 00:25:43;;;;;;;5.80;5.17;;;;;;;24.26;59.16;99562.78;2060124;28;20025;-46
2021/09/10 00:26:43;;;;;;;5.50;5.00;;;;;;;24.26;59.25;99573.78;2058093;28;20064;-47
2021/09/10 00:27:44;;;;;;;5.70;5.20;;;;;;;24.27;59.14;99564.47;2058712;28;20089;-46
2021/09/10 00:28:44;;;;;;;5.70;5.20;;;;;;;24.27;59.20;99571.88;2049617;28;20137;-47
2021/09/10 00:29:45;;;;;;;5.70;5.20;;;;;;;24.27;59.30;99572.72;2059860;28;20022;-46
2021/09/10 00:30:45;;;;;;;5.67;5.17;;;;;;;24.27;59.25;99563.63;2055069;28;20057;-47
2021/09/10 00:31:47;;;;;;;5.57;5.07;;;;;;;24.28;59.11;99574.44;2054811;28;20049;-49
2021/09/10 00:32:47;;;;;;;5.50;5.00;;;;;;;24.27;59.00;99581.00;2051553;28;20076;-47
2021/09/10 00:33:48;;;;;;;6.23;5.63;;;;;;;24.27;59.14;99569.97;2056050;28;20034;-47
2021/09/10 00:34:49;;;;;;;5.67;5.07;;;;;;;24.27;59.05;99571.88;2060349;28;20037;-47
2021/09/10 00:35:49;;;;;;;6.13;5.63;;;;;;;24.27;59.19;99574.63;2067999;28;20148;-46
2021/09/10 00:36:50;;;;;;;5.60;5.10;;;;;;;24.26;59.02;99568.28;2060083;28;20111;-47
2021/09/10 00:37:50;;;;;;;6.18;5.28;;;;;;;24.25;59.25;99568.47;2061753;28;21024;-46
2021/09/10 00:38:51;;;;;;;6.10;5.57;;;;;;;24.25;59.24;99569.31;2055592;28;20165;-47
2021/09/10 00:39:51;;;;;;;5.10;4.70;;;;;;;24.26;59.15;99571.03;2061294;28;20482;-47
2021/09/10 00:40:52;;;;;;;5.60;5.10;;;;;;;24.26;59.25;99575.69;2065377;28;20032;-47
2021/09/10 00:41:53;;;;;;;6.45;5.85;;;;;;;24.24;59.16;99570.38;2054456;28;20045;-46
2021/09/10 00:42:53;;;;;;;5.80;5.30;;;;;;;24.26;59.32;99579.31;2060715;28;20041;-47
2021/09/10 00:43:54;;;;;;;5.90;5.40;;;;;;;24.26;59.18;99572.94;2057111;28;20140;-47
2021/09/10 00:44:54;;;;;;;6.07;5.47;;;;;;;24.25;59.22;99576.72;2053766;28;20511;-46
2021/09/10 00:45:57;;;;;;;6.23;5.57;;;;;;;24.25;59.13;99566.56;2058412;28;20033;-46
2021/09/10 00:46:58;;;;;;;5.25;4.75;;;;;;;24.25;59.17;99577.56;2060284;28;20104;-46
2021/09/10 00:47:58;;;;;;;6.17;5.00;;;;;;;24.25;59.16;99571.22;2055421;28;20085;-46
2021/09/10 00:48:59;;;;;;;5.80;5.00;;;;;;;24.24;59.20;99564.03;2056437;28;20022;-46
2021/09/10 00:50:00;;;;;;;6.00;5.40;;;;;;;24.25;59.25;99576.72;2058510;28;20044;-47
2021/09/10 00:51:00;;;;;;;5.80;5.30;;;;;;;24.25;59.23;99580.34;2054291;28;20757;-46
2021/09/10 00:52:01;;;;;;;6.20;5.60;;;;;;;24.25;59.08;99583.09;2057248;28;20025;-46
2021/09/10 00:53:02;;;;;;;5.70;5.20;;;;;;;24.25;59.31;99580.34;2059320;28;20407;-46
2021/09/10 00:54:02;;;;;;;6.47;5.87;;;;;;;24.26;59.24;99590.31;2056272;28;20519;-46
2021/09/10 00:55:03;;;;;;;6.07;5.50;;;;;;;24.25;59.21;99583.09;2056099;28;20026;-47
2021/09/10 00:56:04;;;;;;;5.75;5.25;;;;;;;24.26;59.24;99587.56;2056245;28;20083;-47
2021/09/10 00:57:05;;;;;;;5.57;5.07;;;;;;;24.25;59.26;99588.59;2062185;28;20084;-46
2021/09/10 00:58:05;;;;;;;6.07;5.40;;;;;;;24.26;59.17;99586.72;2056895;28;20053;-46
2021/09/10 00:59:05;;;;;;;6.27;5.70;;;;;;;24.26;59.27;99584.81;2062664;28;20061;-48
2021/09/10 01:00:06;;;;;;;5.50;5.00;;;;;;;24.25;59.10;99585.84;2059436;28;20033;-46
2021/09/10 01:01:08;;;;;;;5.73;5.07;;;;;;;24.26;59.16;99590.31;2062342;28;20033;-46
2021/09/10 01:02:09;;;;;;;5.53;5.03;;;;;;;24.25;59.09;99583.09;2056921;28;20440;-46
2021/09/10 01:03:11;;;;;;;6.57;5.97;;;;;;;24.25;59.02;99591.34;2056317;28;20088;-47
2021/09/10 01:04:11;;;;;;;6.45;5.85;;;;;;;24.26;59.17;99584.81;2063758;28;20112;-46
2021/09/10 01:05:12;;;;;;;6.07;5.47;;;;;;;24.25;59.11;99585.84;2057393;28;20029;-46
2021/09/10 01:06:12;;;;;;;5.90;5.03;;;;;;;24.25;59.22;99594.09;2053920;28;20032;-47
2021/09/10 01:07:13;;;;;;;6.40;5.80;;;;;;;24.24;59.16;99591.56;2055548;28;20030;-47
2021/09/10 01:08:15;;;;;;;5.72;5.13;;;;;;;24.26;59.08;99594.97;2057965;28;20056;-47
2021/09/10 01:09:17;;;;;;;5.68;5.13;;;;;;;24.25;59.18;99594.09;2061409;28;20096;-46
2021/09/10 01:10:18;;;;;;;;;;;;;;;24.20;59.27;99585.56;2061336;28;20021;-47
2021/09/10 01:11:19;;;;;;;5.75;5.25;;;;;;;24.22;59.13;99594.50;2058582;28;20308;-46
2021/09/10 01:12:20;;;;;;;5.82;5.32;;;;;;;24.20;59.33;99593.84;2059459;28;20468;-47
2021/09/10 01:13:23;;;;;;;5.43;4.93;;;;;;;24.22;59.36;99600.00;2065439;28;20037;-47
2021/09/10 01:14:24;;;;;;;6.25;5.65;;;;;;;24.20;59.25;99588.31;2064577;28;20044;-48
2021/09/10 01:15:25;;;;;;;5.70;5.20;;;;;;;24.22;59.28;99600.00;2055387;28;20030;-46
2021/09/10 01:16:26;;;;;;;6.37;5.77;;;;;;;24.23;59.02;99590.72;2061588;28;20566;-46
2021/09/10 01:17:26;;;;;;;5.90;5.40;;;;;;;24.22;59.20;99591.75;2055468;28;20360;-47
2021/09/10 01:18:27;;;;;;;6.50;5.83;;;;;;;24.22;59.33;99589.00;2061526;28;20036;-46
2021/09/10 01:19:30;;;;;;;5.23;4.83;;;;;;;24.23;59.24;99589.84;2061129;28;20010;-46
2021/09/10 01:20:31;;;;;;;5.80;5.30;;;;;;;24.23;59.26;99587.97;2059538;28;20033;-47
2021/09/10 01:21:31;;;;;;;5.77;5.27;;;;;;;24.22;59.43;99589.00;2054896;28;20274;-47
2021/09/10 01:22:33;;;;;;;6.80;5.33;;;;;;;24.22;59.29;99580.72;2059134;28;20033;-47
2021/09/10 01:23:33;;;;;;;5.80;5.05;;;;;;;24.23;59.15;99584.31;2059953;28;20450;-47
2021/09/10 01:25:03;;;;;;;5.63;5.13;;;;;;;24.20;59.32;99582.81;2065744;28;20029;-47
2021/09/10 01:26:03;;;;;;;5.85;5.25;;;;;;;24.21;59.15;99581.78;2061786;28;20017;-46
2021/09/10 01:27:05;;;;;;;6.23;5.60;;;;;;;24.20;59.27;99593.84;2061584;28;20034;-46
2021/09/10 01:28:06;;;;;;;4.78;4.38;;;;;;;24.20;59.22;99580.06;2062273;28;20441;-46
2021/09/10 01:29:06;;;;;;;6.60;5.57;;;;;;;24.21;59.09;99587.31;2061146;28;20025;-46
2021/09/10 01:30:07;;;;;;;5.83;5.33;;;;;;;24.21;59.20;99587.31;2062997;28;20446;-46
2021/09/10 01:31:08;;;;;;;6.05;5.45;;;;;;;24.21;59.26;99590.06;2061746;28;20212;-47
2021/09/10 01:32:10;;;;;;;5.90;5.40;;;;;;;24.22;59.13;99588.16;2058552;28;20162;-47
2021/09/10 01:33:10;;;;;;;;;;;;;;;24.16;59.47;99587.88;2057407;28;20030;-47
2021/09/10 01:34:11;;;;;;;5.47;4.95;;;;;;;24.20;59.32;99596.59;2058898;28;19913;-46
2021/09/10 01:35:13;;;;;;;5.70;5.10;;;;;;;24.20;59.21;99593.84;2065997;28;20033;-46
2021/09/10 01:36:14;;;;;;;;;;;;;;;24.16;59.36;99595.31;2062175;28;20026;-46
2021/09/10 01:37:16;;;;;;;5.53;5.03;;;;;;;24.16;59.38;99593.38;2059807;28;19931;-46
2021/09/10 01:38:16;;;;;;;6.20;5.70;;;;;;;24.17;59.43;99592.31;2056418;28;20034;-46
2021/09/10 01:39:17;;;;;;;6.10;5.60;;;;;;;24.18;59.35;99593.22;2063322;28;20030;-47
2021/09/10 01:40:17;;;;;;;5.63;5.13;;;;;;;24.18;59.39;99594.06;2063302;28;20030;-46
2021/09/10 01:41:18;;;;;;;6.10;5.60;;;;;;;24.19;59.11;99589.41;2060372;28;20061;-46
2021/09/10 01:42:18;;;;;;;5.80;5.30;;;;;;;24.21;59.28;99595.56;2062855;28;20025;-46
2021/09/10 01:43:19;;;;;;;5.30;4.80;;;;;;;24.21;59.20;99586.44;2061060;28;20246;-46
2021/09/10 01:44:19;;;;;;;6.23;5.73;;;;;;;24.21;59.22;99587.31;2059172;28;20140;-47
2021/09/10 01:45:20;;;;;;;5.33;4.93;;;;;;;24.21;59.40;99587.31;2060646;28;20024;-48
2021/09/10 01:46:21;;;;;;;5.70;5.20;;;;;;;24.21;59.21;99592.81;2054056;28;20030;-46
2021/09/10 01:47:21;;;;;;;5.23;4.73;;;;;;;24.21;59.19;99587.31;2058129;28;20116;-46
2021/09/10 01:48:22;;;;;;;5.50;5.00;;;;;;;24.21;59.28;99595.56;2057249;28;20033;-46
2021/09/10 01:49:22;;;;;;;5.40;4.90;;;;;;;24.20;59.19;99588.31;2056530;28;20168;-47
2021/09/10 01:50:25;;;;;;;5.77;5.27;;;;;;;24.20;59.25;99587.47;2059549;28;20033;-46
2021/09/10 01:51:32;;;;;;;6.18;5.57;;;;;;;24.19;59.37;99589.41;2058926;28;20025;-47
2021/09/10 01:52:33;;;;;;;5.45;4.95;;;;;;;24.19;59.20;99586.63;2059766;28;20037;-46
2021/09/10 01:53:34;;;;;;;5.50;4.93;;;;;;;24.19;59.06;99581.13;2056678;28;20522;-46
2021/09/10 01:54:35;;;;;;;5.38;4.88;;;;;;;24.20;59.19;99585.56;2060736;28;20083;-46
2021/09/10 01:55:36;;;;;;;5.93;4.93;;;;;;;24.19;59.16;99583.88;2062388;28;20554;-46
2021/09/10 01:56:36;;;;;;;5.60;5.10;;;;;;;24.20;59.09;99585.56;2057705;28;20036;-46
2021/09/10 01:57:37;;;;;;;6.10;5.40;;;;;;;24.20;59.24;99585.56;2062446;28;20032;-46
2021/09/10 01:58:37;;;;;;;5.67;5.17;;;;;;;24.19;59.22;99578.38;2065480;28;20444;-46
2021/09/10 01:59:43;;;;;;;6.10;5.50;;;;;;;24.20;59.12;99590.25;2058353;28;20060;-46
2021/09/10 02:00:43;;;;;;;5.28;4.78;;;;;;;24.21;59.04;99581.78;2066273;28;20048;-47
2021/09/10 02:01:44;;;;;;;5.43;4.93;;;;;;;24.21;59.05;99587.31;2055358;28;20022;-46
2021/09/10 02:02:45;;;;;;;5.20;4.73;;;;;;;24.20;59.11;99580.06;2061811;28;20332;-47
2021/09/10 02:03:46;;;;;;;;;;;;;;;24.16;58.95;99589.78;2056712;28;20065;-46
2021/09/10 02:04:47;;;;;;;5.45;4.95;;;;;;;24.18;59.12;99582.19;2059019;28;20332;-47
2021/09/10 02:05:49;;;;;;;5.50;5.00;;;;;;;24.18;59.14;99583.03;2061603;28;21153;-46
2021/09/10 02:06:49;;;;;;;6.47;5.28;;;;;;;24.19;59.07;99583.88;2055895;28;20518;-46
2021/09/10 02:07:50;;;;;;;5.50;5.00;;;;;;;24.19;59.22;99589.41;2059796;28;20030;-47
2021/09/10 02:08:51;;;;;;;5.67;5.17;;;;;;;24.19;59.22;99583.88;2061525;28;20020;-46
2021/09/10 02:09:51;;;;;;;5.03;4.63;;;;;;;24.18;59.28;99579.44;2061649;28;20702;-46
2021/09/10 02:10:51;;;;;;;5.37;4.87;;;;;;;24.18;59.14;99587.69;2061781;28;20422;-46
2021/09/10 02:11:52;;;;;;;5.23;4.73;;;;;;;24.18;59.02;99582.19;2062993;28;20309;-47
2021/09/10 02:12:52;;;;;;;5.63;4.93;;;;;;;24.18;59.24;99591.31;2060107;28;20844;-46
2021/09/10 02:13:53;;;;;;;4.67;4.27;;;;;;;24.19;59.07;99583.88;2058535;28;20036;-46
2021/09/10 02:14:54;;;;;;;5.23;4.80;;;;;;;24.19;59.11;99581.13;2057254;28;20030;-46
2021/09/10 02:15:55;;;;;;;6.00;5.45;;;;;;;24.18;59.11;99584.94;2059223;28;20081;-46
2021/09/10 02:16:55;;;;;;;5.87;5.30;;;;;;;24.18;59.05;99583.03;2060724;28;20528;-46
2021/09/10 02:17:56;;;;;;;5.33;4.60;;;;;;;24.18;59.15;99582.19;2057176;28;20498;-46
2021/09/10 02:18:56;;;;;;;5.57;5.07;;;;;;;24.17;59.23;99574.97;2054091;28;20056;-46
2021/09/10 02:19:57;;;;;;;5.30;4.90;;;;;;;24.18;59.19;99579.44;2057716;28;20817;-47
2021/09/10 02:20:57;;;;;;;5.27;4.80;;;;;;;24.17;59.08;99584.06;2066429;28;20024;-46
2021/09/10 02:21:58;;;;;;;5.27;4.80;;;;;;;24.17;59.18;99580.47;2055758;28;20022;-46
2021/09/10 02:22:58;;;;;;;5.77;5.27;;;;;;;24.17;59.16;99580.47;2062262;28;20460;-46
2021/09/10 02:23:59;;;;;;;5.63;4.67;;;;;;;24.18;59.20;99582.19;2059712;28;20801;-47
2021/09/10 02:24:59;;;;;;;5.63;5.13;;;;;;;24.17;59.20;99591.47;2058588;28;20041;-46
2021/09/10 02:26:00;;;;;;;5.43;4.93;;;;;;;24.17;59.23;99581.31;2059677;28;20101;-47
2021/09/10 02:27:02;;;;;;;5.20;4.70;;;;;;;24.17;59.16;99578.56;2058966;28;20121;-46
2021/09/10 02:28:02;;;;;;;;;;;;;;;24.14;59.29;99589.13;2059273;28;20309;-46
2021/09/10 02:29:03;;;;;;;6.32;5.72;;;;;;;24.14;59.19;99581.72;2061419;28;19921;-47
2021/09/10 02:30:04;;;;;;;6.03;5.53;;;;;;;24.15;59.22;99577.06;2054549;28;20100;-46
2021/09/10 02:31:05;;;;;;;5.68;5.18;;;;;;;24.16;59.15;99578.78;2062920;28;20037;-46
2021/09/10 02:32:06;;;;;;;5.75;5.25;;;;;;;24.16;59.31;99587.03;2059914;28;20068;-46
2021/09/10 02:33:07;;;;;;;5.63;5.13;;;;;;;24.16;59.40;99578.78;2059667;28;20030;-46
2021/09/10 02:34:08;;;;;;;5.17;4.63;;;;;;;24.16;59.25;99582.38;2058072;28;20053;-46
2021/09/10 02:35:08;;;;;;;5.25;4.85;;;;;;;24.17;59.28;99583.22;2058557;28;20113;-47
2021/09/10 02:36:09;;;;;;;5.07;4.67;;;;;;;24.17;59.14;99585.97;2066203;28;20889;-46
2021/09/10 02:37:10;;;;;;;5.90;5.40;;;;;;;24.17;59.15;99591.47;2058712;28;20035;-46
2021/09/10 02:38:11;;;;;;;6.30;5.20;;;;;;;24.16;59.32;99578.78;2060611;28;20285;-46
2021/09/10 02:39:12;;;;;;;5.28;4.78;;;;;;;24.17;59.08;99575.81;2059793;28;20636;-46
2021/09/10 02:40:13;;;;;;;5.20;4.80;;;;;;;24.17;59.18;99574.97;2057584;28;20050;-46
2021/09/10 02:41:13;;;;;;;5.70;4.73;;;;;;;24.16;59.17;99573.28;2059832;28;20736;-46
2021/09/10 02:42:15;;;;;;;5.40;4.70;;;;;;;24.16;58.98;99576.88;2058778;28;20072;-46
2021/09/10 02:43:16;;;;;;;5.68;5.18;;;;;;;24.16;59.34;99573.28;2060142;28;20028;-46
2021/09/10 02:44:16;;;;;;;5.53;5.03;;;;;;;24.17;59.22;99574.97;2056504;28;20061;-46
2021/09/10 02:45:17;;;;;;;5.47;4.97;;;;;;;24.17;59.09;99583.22;2060868;28;20010;-46
2021/09/10 02:46:18;;;;;;;5.57;5.07;;;;;;;24.17;59.16;99588.72;2062997;28;20048;-46
2021/09/10 02:47:18;;;;;;;6.03;5.53;;;;;;;24.17;59.10;99580.47;2059566;28;20048;-46
2021/09/10 02:48:19;;;;;;;5.30;4.80;;;;;;;24.17;59.22;99585.97;2064640;28;20105;-46
2021/09/10 02:49:20;;;;;;;5.67;5.17;;;;;;;24.16;59.09;99574.13;2060501;28;20383;-46
2021/09/10 02:50:21;;;;;;;;;;;;;;;24.13;59.18;99590.16;2058806;28;20018;-46
2021/09/10 02:51:22;;;;;;;5.47;4.85;;;;;;;24.12;59.14;99583.81;2059300;28;20453;-46
2021/09/10 02:52:22;;;;;;;5.50;5.00;;;;;;;24.14;59.20;99589.13;2063132;28;20388;-46
2021/09/10 02:53:23;;;;;;;4.83;4.43;;;;;;;24.15;59.42;99588.06;2060660;28;20050;-46
2021/09/10 02:54:23;;;;;;;5.57;5.07;;;;;;;24.13;59.12;99580.03;2059522;28;20052;-46
2021/09/10 02:55:24;;;;;;;5.27;4.77;;;;;;;24.14;59.24;99584.47;2055556;28;20026;-46
2021/09/10 02:56:24;;;;;;;5.73;5.23;;;;;;;24.15;59.09;99571.53;2058650;28;20068;-46
2021/09/10 02:57:25;;;;;;;4.90;4.50;;;;;;;24.15;59.18;99579.81;2058069;28;20581;-46
2021/09/10 02:58:25;;;;;;;4.93;4.53;;;;;;;24.15;59.27;99577.06;2058587;28;20069;-46
2021/09/10 02:59:26;;;;;;;5.23;4.70;;;;;;;24.16;59.23;99576.03;2064151;28;20056;-46
2021/09/10 03:00:26;;;;;;;5.77;4.80;;;;;;;24.15;59.19;99577.06;2059442;28;20179;-46
2021/09/10 03:01:26;;;;;;;5.40;4.90;;;;;;;24.15;59.11;99586.16;2064950;28;20534;-46
2021/09/10 03:02:27;;;;;;;5.50;5.00;;;;;;;24.15;59.11;99582.56;2059028;28;20029;-46
2021/09/10 03:03:28;;;;;;;5.63;5.13;;;;;;;24.15;59.13;99588.91;2060142;28;20176;-46
2021/09/10 03:04:29;;;;;;;4.80;4.40;;;;;;;24.15;59.19;99588.91;2054154;28;20790;-46
2021/09/10 03:05:31;;;;;;;5.60;5.03;;;;;;;24.15;59.31;99588.06;2058758;28;20018;-46
2021/09/10 03:06:32;;;;;;;5.15;4.65;;;;;;;24.15;59.21;99588.06;2063456;28;20380;-46
2021/09/10 03:07:32;;;;;;;5.60;5.10;;;;;;;24.15;59.21;99594.41;2058316;28;20037;-46
2021/09/10 03:08:33;;;;;;;5.57;5.07;;;;;;;24.15;59.18;99588.06;2066319;28;20344;-46
2021/09/10 03:09:33;;;;;;;5.40;4.90;;;;;;;24.15;59.07;99593.56;2059618;28;20127;-46
2021/09/10 03:10:34;;;;;;;5.30;4.87;;;;;;;24.15;59.11;99577.06;2064000;28;20048;-46
2021/09/10 03:11:34;;;;;;;6.33;4.80;;;;;;;24.14;59.19;99583.63;2056416;28;20116;-46
2021/09/10 03:12:36;;;;;;;5.03;4.57;;;;;;;24.14;59.19;99587.22;2057562;28;20529;-46
2021/09/10 03:13:36;;;;;;;;;;;;;;;24.10;59.31;99587.81;2059691;28;20049;-46
2021/09/10 03:14:37;;;;;;;5.45;4.95;;;;;;;24.12;59.20;99589.31;2056975;28;20318;-46
2021/09/10 03:15:38;;;;;;;6.30;5.70;;;;;;;24.13;59.24;99595.66;2062302;28;20025;-46
2021/09/10 03:16:39;;;;;;;5.00;4.50;;;;;;;24.12;59.23;99580.22;2058920;28;20433;-46
2021/09/10 03:17:40;;;;;;;5.20;4.70;;;;;;;24.12;59.27;99581.06;2062001;28;20033;-46
2021/09/10 03:18:41;;;;;;;5.95;5.45;;;;;;;24.13;59.25;99584.66;2066620;28;20476;-46
2021/09/10 03:19:41;;;;;;;6.00;5.50;;;;;;;24.13;59.25;99582.78;2060503;28;20028;-46
2021/09/10 03:20:43;;;;;;;4.63;4.23;;;;;;;24.13;59.23;99570.88;2063717;28;20022;-46
2021/09/10 03:21:44;;;;;;;5.32;4.82;;;;;;;24.13;59.08;99576.38;2057958;28;20700;-46
2021/09/10 03:22:44;;;;;;;5.03;4.63;;;;;;;24.13;59.25;99570.88;2051268;28;20384;-46
2021/09/10 03:23:44;;;;;;;6.00;5.40;;;;;;;24.14;59.18;99572.59;2056616;28;20034;-46
2021/09/10 03:24:45;;;;;;;4.93;4.53;;;;;;;24.14;59.24;99578.13;2055368;28;20049;-46
2021/09/10 03:25:45;;;;;;;5.33;4.83;;;;;;;24.14;59.08;99575.34;2059463;28;20038;-47
2021/09/10 03:26:46;;;;;;;4.90;4.50;;;;;;;24.14;59.13;99583.63;2058923;28;20030;-46
2021/09/10 03:27:47;;;;;;;5.28;4.85;;;;;;;24.14;59.01;99586.38;2056454;28;20072;-46
2021/09/10 03:28:48;;;;;;;5.33;4.80;;;;;;;24.14;59.10;99578.13;2057453;28;20045;-47
2021/09/10 03:29:48;;;;;;;5.47;4.97;;;;;;;24.14;59.08;99575.34;2056486;28;20192;-46
2021/09/10 03:30:49;;;;;;;5.27;4.80;;;;;;;24.14;59.12;99580.88;2058952;28;20040;-46
2021/09/10 03:31:49;;;;;;;5.23;4.83;;;;;;;24.13;59.15;99579.16;2058874;28;20040;-46
2021/09/10 03:32:49;;;;;;;5.17;4.77;;;;;;;24.14;59.12;99575.34;2059681;28;20029;-46
2021/09/10 03:33:50;;;;;;;5.23;4.83;;;;;;;24.12;59.02;99567.28;2059898;28;20052;-46
2021/09/10 03:34:50;;;;;;;5.27;4.83;;;;;;;24.13;59.02;99563.50;2056323;28;20329;-46
2021/09/10 03:35:51;;;;;;;5.20;4.70;;;;;;;24.12;59.02;99567.28;2064553;28;20048;-46
2021/09/10 03:36:51;;;;;;;5.13;4.63;;;;;;;24.13;59.16;99568.13;2057778;28;20247;-46
2021/09/10 03:37:51;;;;;;;5.47;4.97;;;;;;;24.14;59.17;99570.69;2060347;28;20112;-46
2021/09/10 03:38:52;;;;;;;5.57;5.07;;;;;;;24.13;59.21;99566.25;2056625;28;20033;-46
2021/09/10 03:39:52;;;;;;;5.27;4.87;;;;;;;24.14;59.13;99564.34;2057759;28;20106;-46
2021/09/10 03:40:53;;;;;;;5.47;4.90;;;;;;;24.13;59.02;99562.63;2059434;28;20068;-46
2021/09/10 03:41:53;;;;;;;4.77;4.37;;;;;;;24.13;58.97;99568.13;2058295;28;20112;-46
2021/09/10 03:42:54;;;;;;;5.17;4.73;;;;;;;24.13;59.29;99563.50;2059483;28;20026;-46
2021/09/10 03:43:54;;;;;;;5.67;5.17;;;;;;;24.14;59.19;99567.09;2063722;28;20428;-46
2021/09/10 03:44:54;;;;;;;5.80;5.30;;;;;;;24.13;58.93;99565.38;2065987;28;20117;-46
2021/09/10 03:45:55;;;;;;;5.13;4.63;;;;;;;24.13;59.17;99568.13;2057383;28;20030;-46
2021/09/10 03:46:55;;;;;;;6.20;5.17;;;;;;;24.13;59.19;99568.13;2056558;28;20064;-46
2021/09/10 03:47:56;;;;;;;5.27;4.77;;;;;;;24.12;59.09;99567.28;2058429;28;20034;-46
2021/09/10 03:48:56;;;;;;;5.37;4.87;;;;;;;24.12;59.26;99571.94;2058395;28;20036;-46
2021/09/10 03:49:57;;;;;;;5.10;4.60;;;;;;;24.14;59.06;99583.63;2062166;28;20037;-46
2021/09/10 03:50:57;;;;;;;5.57;5.07;;;;;;;24.13;59.24;99581.91;2058033;28;20357;-46
2021/09/10 03:51:58;;;;;;;5.13;4.67;;;;;;;24.12;59.20;99582.97;2058877;28;20428;-46
2021/09/10 03:52:58;;;;;;;5.83;5.23;;;;;;;24.11;59.16;99582.13;2057562;28;20033;-46
2021/09/10 03:53:59;;;;;;;5.30;4.80;;;;;;;24.13;59.17;99584.66;2057101;28;20029;-46
2021/09/10 03:54:59;;;;;;;5.50;5.00;;;;;;;24.12;59.21;99589.31;2060290;28;20088;-47
2021/09/10 03:56:00;;;;;;;5.10;4.57;;;;;;;24.11;59.15;99584.88;2059157;28;20352;-46
2021/09/10 03:57:00;;;;;;;5.50;5.00;;;;;;;24.13;59.25;99587.41;2060473;28;20025;-46
2021/09/10 03:58:01;;;;;;;4.87;4.47;;;;;;;24.12;59.17;99575.53;2058079;28;20100;-46
2021/09/10 03:59:01;;;;;;;4.93;4.47;;;;;;;24.12;59.19;99582.97;2055498;28;20030;-46
2021/09/10 04:00:03;;;;;;;5.47;4.97;;;;;;;24.11;59.21;99592.28;2061133;28;20029;-46
2021/09/10 04:01:03;;;;;;;5.50;5.00;;;;;;;24.12;59.21;99591.22;2060614;28;20025;-46
2021/09/10 04:02:04;;;;;;;5.37;4.90;;;;;;;24.13;59.12;99595.66;2068049;28;20033;-46
2021/09/10 04:03:04;;;;;;;5.10;4.70;;;;;;;24.11;59.06;99581.25;2059253;28;20136;-46
2021/09/10 04:04:05;;;;;;;5.30;4.80;;;;;;;24.12;59.18;99588.47;2059312;28;20342;-46
2021/09/10 04:05:06;;;;;;;5.73;5.23;;;;;;;24.12;59.21;99593.97;2059138;28;20045;-46
2021/09/10 04:06:08;;;;;;;4.63;4.22;;;;;;;24.12;59.19;99593.97;2058050;28;20032;-46
2021/09/10 04:07:09;;;;;;;5.43;4.93;;;;;;;24.11;59.14;99586.78;2061927;28;20033;-46
2021/09/10 04:08:10;;;;;;;4.80;4.40;;;;;;;24.12;59.12;99582.97;2059193;28;20029;-46
2021/09/10 04:09:10;;;;;;;5.60;5.03;;;;;;;24.10;59.07;99585.91;2064938;28;20122;-46
2021/09/10 04:10:10;;;;;;;5.33;4.83;;;;;;;24.11;59.08;99589.53;2058416;28;20087;-46
2021/09/10 04:11:11;;;;;;;4.60;4.20;;;;;;;24.11;59.08;99592.28;2056781;28;20415;-46
2021/09/10 04:12:11;;;;;;;5.90;5.40;;;;;;;24.12;59.08;99593.97;2059978;28;20075;-46
2021/09/10 04:13:12;;;;;;;5.70;5.20;;;;;;;24.12;59.06;99594.81;2058231;28;20057;-46
2021/09/10 04:14:12;;;;;;;5.10;4.70;;;;;;;24.11;59.25;99589.53;2060139;28;20039;-45
2021/09/10 04:15:13;;;;;;;5.37;4.87;;;;;;;24.12;59.26;99596.72;2058824;28;20037;-46
2021/09/10 04:16:13;;;;;;;4.50;4.10;;;;;;;24.11;59.06;99595.03;2055256;28;20026;-46
2021/09/10 04:17:14;;;;;;;5.10;4.63;;;;;;;24.10;58.96;99596.06;2062806;28;20045;-46
2021/09/10 04:18:14;;;;;;;5.33;4.83;;;;;;;24.12;59.10;99605.00;2059406;28;20109;-46
2021/09/10 04:19:15;;;;;;;5.73;5.23;;;;;;;24.10;58.93;99601.56;2060759;28;20021;-46
2021/09/10 04:20:15;;;;;;;4.40;4.00;;;;;;;24.11;59.11;99603.28;2056836;28;20025;-46
2021/09/10 04:21:16;;;;;;;4.63;4.23;;;;;;;24.10;59.08;99604.31;2061405;28;20033;-46
2021/09/10 04:22:17;;;;;;;4.80;4.40;;;;;;;24.10;59.03;99607.91;2059550;28;20017;-46
2021/09/10 04:23:17;;;;;;;5.20;4.75;;;;;;;24.10;59.10;99610.69;2056645;28;20249;-46
2021/09/10 04:24:18;;;;;;;4.57;4.17;;;;;;;24.11;59.12;99608.81;2060988;28;20022;-46
2021/09/10 04:25:19;;;;;;;4.97;4.53;;;;;;;24.11;59.10;99608.81;2061163;28;20413;-46
2021/09/10 04:26:20;;;;;;;5.67;5.17;;;;;;;24.11;59.04;99609.66;2055614;28;20348;-47
2021/09/10 04:27:20;;;;;;;6.00;5.40;;;;;;;24.10;59.05;99613.44;2058355;28;20859;-46
2021/09/10 04:28:20;;;;;;;4.73;4.33;;;;;;;24.11;59.22;99614.31;2058319;28;20313;-46
2021/09/10 04:29:21;;;;;;;4.90;4.40;;;;;;;24.11;59.12;99619.81;2060121;28;20029;-46
2021/09/10 04:30:21;;;;;;;4.97;4.47;;;;;;;24.11;59.11;99617.06;2059305;28;20080;-46
2021/09/10 04:31:22;;;;;;;5.37;4.83;;;;;;;24.10;59.02;99616.19;2059517;28;20339;-46
2021/09/10 04:32:22;;;;;;;5.67;4.90;;;;;;;24.11;59.08;99617.91;2057532;28;20027;-46
2021/09/10 04:33:23;;;;;;;4.10;3.80;;;;;;;24.10;59.19;99618.94;2060727;28;20022;-46
2021/09/10 04:34:23;;;;;;;4.50;4.10;;;;;;;24.12;59.12;99627.00;2057397;28;20096;-46
2021/09/10 04:35:24;;;;;;;5.07;4.57;;;;;;;24.11;59.14;99625.31;2058571;28;20431;-47
2021/09/10 04:36:24;;;;;;;5.83;5.33;;;;;;;24.10;58.96;99626.34;2059484;28;20030;-45
2021/09/10 04:37:25;;;;;;;5.10;4.70;;;;;;;24.11;59.07;99625.31;2056411;28;20037;-46
2021/09/10 04:38:25;;;;;;;6.40;5.20;;;;;;;24.10;59.00;99624.44;2060977;28;20034;-46
2021/09/10 04:39:26;;;;;;;4.93;4.53;;;;;;;24.10;59.21;99629.09;2056028;28;20681;-46
2021/09/10 04:40:26;;;;;;;4.83;4.43;;;;;;;24.10;59.15;99626.34;2059565;28;20108;-46
2021/09/10 04:41:27;;;;;;;4.90;4.50;;;;;;;24.10;59.12;99629.09;2054952;28;20344;-46
2021/09/10 04:42:27;;;;;;;5.03;4.53;;;;;;;24.11;59.12;99628.06;2057098;28;20030;-46
2021/09/10 04:43:28;;;;;;;4.73;4.33;;;;;;;24.10;59.21;99623.59;2060078;28;20045;-46
2021/09/10 04:44:28;;;;;;;5.40;4.90;;;;;;;24.10;59.21;99623.59;2056168;28;20038;-46
2021/09/10 04:45:29;;;;;;;5.03;4.63;;;;;;;24.09;59.08;99622.75;2059082;28;20025;-46
2021/09/10 04:46:29;;;;;;;5.23;4.73;;;;;;;24.10;59.08;99620.84;2057670;28;20029;-46